createdAt,value
2019-04-26T00:00:53.250Z,73.90
2019-04-26T00:03:24.288Z,73.70
2019-04-26T00:05:53.616Z,74.10
2019-04-26T00:08:22.646Z,74.30
2019-04-26T00:11:09.619Z,74.50
2019-04-26T00:13:53.345Z,74.20
2019-04-26T00:16:24.097Z,74.30
2019-04-26T00:18:53.057Z,74.60
2019-04-26T00:21:22.671Z,74.80
2019-04-26T00:23:52.391Z,75.10
2019-04-26T00:26:22.059Z,75.10
2019-04-26T00:28:51.102Z,75.20
2019-04-26T00:31:20.048Z,75.40
2019-04-26T00:33:49.044Z,75.90
2019-04-26T00:36:18.699Z,76.20
2019-04-26T00:38:48.107Z,76.50
2019-04-26T00:41:18.477Z,76.90
2019-04-26T00:43:49.294Z,76.60
2019-04-26T00:46:20.887Z,76.40
2019-04-26T00:48:52.202Z,76.10
2019-04-26T00:51:22.100Z,75.80
2019-04-26T00:53:52.504Z,76.30
2019-04-26T00:56:22.600Z,76.50
2019-04-26T00:58:52.488Z,76.30
2019-04-26T01:01:22.976Z,76.50
2019-04-26T01:03:51.997Z,76.00
2019-04-26T01:06:22.984Z,75.90
2019-04-26T01:08:52.331Z,75.60
2019-04-26T01:11:21.860Z,76.10
2019-04-26T01:13:50.864Z,75.50
2019-04-26T01:16:20.215Z,75.90
2019-04-26T01:18:52.504Z,76.00
2019-04-26T01:21:24.752Z,75.50
2019-04-26T01:23:56.904Z,75.20
2019-04-26T01:26:31.744Z,75.30
2019-04-26T01:29:03.967Z,75.00
2019-04-26T01:31:36.008Z,74.80
2019-04-26T01:34:05.309Z,75.40
2019-04-26T01:36:36.952Z,75.80
2019-04-26T01:39:10.289Z,75.00
2019-04-26T01:41:53.185Z,75.40
2019-04-26T01:44:38.620Z,75.70
2019-04-26T01:47:07.595Z,76.70
2019-04-26T01:49:36.724Z,76.10
2019-04-26T01:52:09.142Z,75.30
2019-04-26T01:54:43.457Z,74.20
2019-04-26T01:57:14.394Z,73.30
2019-04-26T01:59:47.787Z,73.20
2019-04-26T02:02:27.777Z,72.70
2019-04-26T02:05:05.861Z,72.90
2019-04-26T02:07:38.543Z,73.10
2019-04-26T02:10:10.077Z,73.10
2019-04-26T02:12:42.069Z,73.40
2019-04-26T02:15:11.710Z,73.20
2019-04-26T02:17:41.920Z,73.30
2019-04-26T02:20:12.442Z,73.60
2019-04-26T02:22:59.662Z,74.10
2019-04-26T02:25:30.083Z,74.50
2019-04-26T02:27:59.679Z,74.50
2019-04-26T02:30:30.513Z,74.80
2019-04-26T02:32:59.548Z,74.70
2019-04-26T02:35:30.238Z,74.90
2019-04-26T02:37:59.357Z,74.90
2019-04-26T02:40:30.091Z,74.70
2019-04-26T02:42:59.356Z,74.80
2019-04-26T02:45:41.878Z,75.00
2019-04-26T02:48:21.945Z,75.30
2019-04-26T02:51:01.512Z,74.80
2019-04-26T02:53:42.192Z,75.00
2019-04-26T02:56:34.121Z,75.10
2019-04-26T02:59:11.779Z,74.50
2019-04-26T03:01:41.811Z,74.60
2019-04-26T03:04:11.084Z,74.60
2019-04-26T03:06:42.852Z,74.70
2019-04-26T03:09:14.751Z,74.70
2019-04-26T03:11:55.937Z,74.70
2019-04-26T03:14:27.686Z,74.70
2019-04-26T03:17:06.953Z,75.60
2019-04-26T03:19:58.668Z,75.20
2019-04-26T03:22:33.190Z,75.30
2019-04-26T03:25:02.684Z,75.60
2019-04-26T03:27:41.879Z,75.20
2019-04-26T03:30:22.751Z,75.30
2019-04-26T03:32:56.311Z,75.50
2019-04-26T03:35:55.352Z,75.80
2019-04-26T03:38:23.236Z,75.50
2019-04-26T03:41:14.806Z,75.90
2019-04-26T03:43:46.909Z,76.00
2019-04-26T03:46:35.689Z,76.00
2019-04-26T03:49:25.631Z,75.70
2019-04-26T03:52:21.866Z,76.40
2019-04-26T03:54:53.981Z,76.40
2019-04-26T03:57:59.587Z,76.70
2019-04-26T04:00:47.316Z,76.60
2019-04-26T04:03:43.475Z,76.60
2019-04-26T04:06:16.386Z,76.90
2019-04-26T04:08:48.536Z,76.90
2019-04-26T04:11:29.223Z,76.50
2019-04-26T04:14:07.028Z,76.80
2019-04-26T04:16:58.511Z,76.50
2019-04-26T04:19:56.281Z,76.90
2019-04-26T04:22:28.383Z,76.60
2019-04-26T04:25:06.445Z,76.30
2019-04-26T04:27:41.846Z,76.30
2019-04-26T04:30:17.742Z,76.10
2019-04-26T04:32:55.733Z,75.90
2019-04-26T04:35:28.042Z,75.30
2019-04-26T04:38:15.325Z,75.20
2019-04-26T04:41:08.708Z,75.20
2019-04-26T04:43:44.585Z,75.00
2019-04-26T04:46:49.654Z,74.80
2019-04-26T04:49:28.607Z,74.90
2019-04-26T04:52:33.518Z,75.30
2019-04-26T04:55:14.401Z,75.30
2019-04-26T04:57:58.393Z,74.80
2019-04-26T05:00:39.085Z,74.40
2019-04-26T05:03:33.077Z,74.90
2019-04-26T05:06:12.563Z,75.00
2019-04-26T05:09:11.781Z,75.20
2019-04-26T05:11:53.855Z,75.30
2019-04-26T05:14:31.762Z,75.70
2019-04-26T05:17:19.174Z,75.80
2019-04-26T05:20:24.378Z,76.50
2019-04-26T05:23:12.283Z,76.50
2019-04-26T05:26:30.965Z,76.70
2019-04-26T05:29:24.170Z,76.80
2019-04-26T05:32:11.156Z,77.40
2019-04-26T05:34:50.738Z,77.90
2019-04-26T05:37:42.880Z,78.20
2019-04-26T05:40:17.659Z,78.80
2019-04-26T05:43:18.556Z,78.60
2019-04-26T05:46:24.212Z,77.80
2019-04-26T05:49:21.689Z,77.50
2019-04-26T05:52:12.184Z,76.40
2019-04-26T05:55:00.261Z,75.20
2019-04-26T05:58:02.958Z,75.50
2019-04-26T06:00:56.091Z,74.40
2019-04-26T06:03:38.560Z,74.50
2019-04-26T06:06:15.196Z,74.30
2019-04-26T06:09:22.019Z,74.50
2019-04-26T06:12:01.566Z,73.90
2019-04-26T06:14:43.970Z,74.70
2019-04-26T06:17:45.030Z,75.20
2019-04-26T06:20:34.011Z,75.40
2019-04-26T06:23:33.324Z,75.70
2019-04-26T06:26:28.143Z,76.50
2019-04-26T06:29:09.030Z,75.70
2019-04-26T06:31:41.124Z,75.40
2019-04-26T06:34:16.089Z,75.60
2019-04-26T06:36:50.180Z,75.40
2019-04-26T06:39:23.870Z,75.20
2019-04-26T06:42:06.475Z,75.00
2019-04-26T06:44:52.239Z,75.60
2019-04-26T06:47:37.440Z,75.60
2019-04-26T06:50:29.413Z,75.90
2019-04-26T06:53:07.328Z,75.80
2019-04-26T06:55:41.078Z,75.20
2019-04-26T06:58:23.920Z,74.50
2019-04-26T07:01:29.188Z,75.50
2019-04-26T07:04:21.302Z,74.50
2019-04-26T07:07:11.616Z,70.60
2019-04-26T07:10:02.542Z,69.20
2019-04-26T07:12:54.394Z,67.20
2019-04-26T07:15:29.376Z,66.10
2019-04-26T07:18:16.271Z,64.50
2019-04-26T07:21:00.463Z,63.00
2019-04-26T07:24:03.845Z,57.10
2019-04-26T07:26:52.787Z,56.30
2019-04-26T07:29:41.455Z,56.50
2019-04-26T07:32:42.599Z,53.20
2019-04-26T07:35:47.994Z,49.20
2019-04-26T07:38:55.907Z,51.60
2019-04-26T07:42:03.309Z,51.30
2019-04-26T07:45:12.396Z,52.00
2019-04-26T07:48:14.642Z,56.40
2019-04-26T07:51:20.567Z,56.20
2019-04-26T07:54:09.172Z,54.30
2019-04-26T07:56:59.014Z,53.00
2019-04-26T07:59:37.031Z,51.30
2019-04-26T08:02:22.367Z,50.50
2019-04-26T08:05:20.505Z,49.40
2019-04-26T08:07:55.211Z,48.50
2019-04-26T08:10:27.567Z,47.70
2019-04-26T08:13:04.427Z,48.60
2019-04-26T08:15:40.283Z,46.10
2019-04-26T08:18:22.060Z,46.00
2019-04-26T08:21:02.565Z,48.80
2019-04-26T08:23:41.686Z,47.90
2019-04-26T08:26:09.136Z,49.70
2019-04-26T08:28:40.854Z,49.30
2019-04-26T08:31:15.540Z,49.10
2019-04-26T08:33:48.981Z,48.00
2019-04-26T08:36:23.266Z,47.50
2019-04-26T08:38:53.956Z,46.90
2019-04-26T08:41:24.796Z,47.60
2019-04-26T08:43:59.794Z,43.90
2019-04-26T08:46:44.742Z,45.10
2019-04-26T08:49:17.582Z,41.60
2019-04-26T08:51:48.138Z,41.50
2019-04-26T08:54:21.568Z,41.70
2019-04-26T08:56:53.689Z,40.70
2019-04-26T08:59:34.600Z,41.80
2019-04-26T09:02:08.325Z,41.50
2019-04-26T09:04:56.875Z,40.50
2019-04-26T09:07:36.281Z,40.90
2019-04-26T09:10:11.296Z,39.70
2019-04-26T09:12:42.511Z,39.40
2019-04-26T09:15:14.897Z,39.40
2019-04-26T09:17:43.972Z,39.60
2019-04-26T09:20:13.471Z,40.50
2019-04-26T09:22:44.148Z,38.20
2019-04-26T09:25:23.888Z,39.30
2019-04-26T09:27:54.627Z,36.10
2019-04-26T09:30:38.559Z,36.10
2019-04-26T09:33:09.951Z,36.00
2019-04-26T09:35:39.567Z,37.80
2019-04-26T09:38:08.533Z,37.00
2019-04-26T09:40:37.760Z,35.60
2019-04-26T09:43:15.251Z,35.70
2019-04-26T09:45:49.152Z,34.20
2019-04-26T09:48:20.214Z,36.60
2019-04-26T09:50:50.878Z,34.40
2019-04-26T09:53:20.134Z,36.60
2019-04-26T09:55:49.158Z,38.20
2019-04-26T09:58:18.397Z,38.00
2019-04-26T10:00:48.470Z,38.00
2019-04-26T10:03:18.223Z,40.80
2019-04-26T10:05:47.333Z,40.70
2019-04-26T10:08:16.456Z,39.00
2019-04-26T10:10:45.521Z,39.80
2019-04-26T10:13:28.272Z,39.00
2019-04-26T10:16:02.595Z,40.70
2019-04-26T10:18:29.782Z,39.80
2019-04-26T10:20:58.739Z,41.20
2019-04-26T10:23:27.732Z,40.50
2019-04-26T10:25:56.683Z,40.20
2019-04-26T10:28:25.830Z,40.60
2019-04-26T10:30:54.792Z,38.60
2019-04-26T10:33:24.020Z,39.50
2019-04-26T10:35:56.796Z,40.50
2019-04-26T10:38:25.387Z,41.10
2019-04-26T10:40:54.604Z,43.20
2019-04-26T10:43:23.558Z,42.90
2019-04-26T10:45:54.035Z,43.10
2019-04-26T10:48:23.386Z,43.10
2019-04-26T10:50:52.641Z,43.30
2019-04-26T10:53:30.257Z,40.10
2019-04-26T10:56:14.531Z,36.30
2019-04-26T10:58:45.259Z,35.80
2019-04-26T11:01:16.085Z,35.40
2019-04-26T11:03:45.395Z,34.60
2019-04-26T11:06:14.516Z,33.60
2019-04-26T11:08:43.621Z,32.60
2019-04-26T11:11:12.616Z,33.40
2019-04-26T11:13:41.572Z,31.80
2019-04-26T11:16:11.016Z,33.50
2019-04-26T11:18:40.077Z,33.50
2019-04-26T11:21:09.096Z,32.00
2019-04-26T11:23:41.175Z,30.70
2019-04-26T11:26:08.878Z,31.80
2019-04-26T11:28:37.834Z,31.20
2019-04-26T11:31:06.844Z,31.90
2019-04-26T11:33:44.727Z,30.90
2019-04-26T11:36:07.378Z,30.80
2019-04-26T11:38:37.727Z,30.40
2019-04-26T11:41:07.096Z,32.30
2019-04-26T11:43:36.283Z,33.30
2019-04-26T11:46:06.146Z,30.20
2019-04-26T11:48:35.122Z,31.50
2019-04-26T11:51:04.184Z,30.00
2019-04-26T11:53:33.466Z,32.60
2019-04-26T11:56:04.488Z,31.80
2019-04-26T11:58:33.482Z,33.00
2019-04-26T12:01:04.156Z,31.30
2019-04-26T12:03:33.153Z,33.40
2019-04-26T12:06:09.652Z,35.70
2019-04-26T12:08:55.313Z,36.10
2019-04-26T12:11:31.573Z,37.20
2019-04-26T12:13:59.284Z,38.10
2019-04-26T12:16:26.004Z,39.50
2019-04-26T12:18:55.039Z,36.30
2019-04-26T12:21:24.169Z,34.80
2019-04-26T12:23:55.456Z,35.30
2019-04-26T12:26:23.947Z,33.00
2019-04-26T12:28:52.926Z,32.70
2019-04-26T12:31:22.310Z,35.00
2019-04-26T12:33:51.711Z,34.20
2019-04-26T12:36:20.680Z,35.00
2019-04-26T12:38:49.791Z,34.70
2019-04-26T12:41:25.232Z,32.60
2019-04-26T12:43:49.838Z,30.70
2019-04-26T12:46:31.852Z,31.40
2019-04-26T12:49:00.428Z,31.60
2019-04-26T12:51:29.452Z,34.40
2019-04-26T12:53:58.819Z,34.70
2019-04-26T12:56:31.295Z,34.40
2019-04-26T12:58:58.449Z,33.80
2019-04-26T13:01:27.483Z,35.00
2019-04-26T13:04:06.632Z,35.90
2019-04-26T13:06:50.515Z,33.70
2019-04-26T13:09:21.815Z,33.70
2019-04-26T13:11:59.177Z,37.10
2019-04-26T13:14:45.895Z,37.80
2019-04-26T13:17:16.506Z,37.70
2019-04-26T13:19:45.506Z,34.90
2019-04-26T13:22:14.472Z,32.10
2019-04-26T13:24:43.419Z,33.50
2019-04-26T13:27:12.449Z,33.10
2019-04-26T13:29:41.420Z,32.20
2019-04-26T13:32:10.671Z,32.20
2019-04-26T13:34:39.643Z,32.30
2019-04-26T13:37:08.586Z,33.20
2019-04-26T13:39:37.957Z,35.00
2019-04-26T13:42:09.602Z,33.70
2019-04-26T13:44:56.441Z,34.00
2019-04-26T13:47:33.218Z,34.20
2019-04-26T13:50:09.438Z,34.00
2019-04-26T13:52:38.464Z,34.70
2019-04-26T13:55:07.602Z,34.30
2019-04-26T13:57:40.317Z,33.00
2019-04-26T14:00:11.697Z,32.50
2019-04-26T14:02:40.785Z,32.30
2019-04-26T14:05:11.062Z,33.80
2019-04-26T14:07:40.575Z,35.50
2019-04-26T14:10:09.973Z,36.70
2019-04-26T14:12:39.181Z,35.10
2019-04-26T14:15:10.093Z,35.90
2019-04-26T14:17:39.310Z,33.80
2019-04-26T14:20:08.743Z,33.70
2019-04-26T14:22:40.974Z,33.50
2019-04-26T14:25:11.862Z,34.00
2019-04-26T14:27:45.410Z,35.20
2019-04-26T14:30:15.885Z,35.80
2019-04-26T14:32:44.913Z,38.50
2019-04-26T14:35:15.611Z,35.20
2019-04-26T14:37:45.428Z,34.50
2019-04-26T14:40:17.728Z,33.10
2019-04-26T14:42:48.463Z,32.90
2019-04-26T14:45:23.817Z,33.50
2019-04-26T14:47:47.960Z,35.20
2019-04-26T14:50:17.107Z,32.10
2019-04-26T14:52:46.132Z,33.10
2019-04-26T14:55:16.457Z,34.20
2019-04-26T14:57:46.813Z,33.90
2019-04-26T15:00:20.745Z,34.70
2019-04-26T15:02:57.784Z,36.80
2019-04-26T15:05:33.225Z,36.20
2019-04-26T15:08:03.872Z,35.60
2019-04-26T15:10:43.856Z,37.40
2019-04-26T15:13:17.142Z,37.20
2019-04-26T15:15:37.296Z,35.10
2019-04-26T15:18:06.330Z,36.40
2019-04-26T15:20:35.418Z,36.80
2019-04-26T15:23:04.471Z,37.60
2019-04-26T15:25:33.629Z,36.60
2019-04-26T15:28:06.782Z,38.30
2019-04-26T15:30:43.053Z,36.80
2019-04-26T15:33:08.638Z,35.80
2019-04-26T15:35:52.139Z,35.80
2019-04-26T15:38:21.832Z,34.60
2019-04-26T15:40:53.414Z,35.10
2019-04-26T15:43:36.195Z,34.50
2019-04-26T15:46:13.344Z,35.70
2019-04-26T15:48:50.404Z,35.20
2019-04-26T15:51:20.147Z,34.60
2019-04-26T15:53:49.775Z,34.20
2019-04-26T15:56:19.183Z,34.90
2019-04-26T15:58:49.187Z,34.40
2019-04-26T16:01:18.371Z,35.10
2019-04-26T16:03:47.525Z,34.20
2019-04-26T16:06:16.533Z,34.00
2019-04-26T16:08:45.474Z,34.50
2019-04-26T16:11:14.577Z,34.40
2019-04-26T16:13:45.175Z,33.50
2019-04-26T16:16:16.472Z,34.30
2019-04-26T16:18:49.863Z,35.50
2019-04-26T16:21:17.984Z,34.40
2019-04-26T16:23:50.947Z,34.60
2019-04-26T16:26:17.070Z,34.40
2019-04-26T16:29:06.157Z,35.00
2019-04-26T16:31:36.752Z,35.30
2019-04-26T16:34:11.599Z,34.70
2019-04-26T16:36:45.031Z,33.70
2019-04-26T16:39:13.849Z,35.40
2019-04-26T16:41:42.985Z,34.40
2019-04-26T16:44:13.082Z,34.00
2019-04-26T16:46:43.892Z,34.50
2019-04-26T16:49:14.113Z,34.10
2019-04-26T16:51:43.702Z,34.90
2019-04-26T16:54:20.740Z,34.40
2019-04-26T16:56:44.052Z,35.00
2019-04-26T16:59:14.228Z,35.00
2019-04-26T17:01:47.267Z,34.70
2019-04-26T17:04:19.924Z,34.80
2019-04-26T17:06:46.392Z,35.60
2019-04-26T17:09:15.875Z,34.80
2019-04-26T17:11:44.840Z,34.30
2019-04-26T17:14:13.807Z,35.50
2019-04-26T17:16:44.466Z,35.40
2019-04-26T17:19:13.847Z,35.90
2019-04-26T17:21:44.654Z,36.30
2019-04-26T17:24:27.772Z,36.40
2019-04-26T17:27:09.859Z,35.20
2019-04-26T17:29:38.483Z,35.50
2019-04-26T17:32:09.018Z,36.30
2019-04-26T17:34:40.546Z,36.60
2019-04-26T17:37:12.781Z,35.80
2019-04-26T17:39:40.886Z,36.60
2019-04-26T17:42:10.558Z,36.80
2019-04-26T17:44:41.262Z,37.00
2019-04-26T17:47:10.698Z,37.50
2019-04-26T17:49:42.296Z,37.20
2019-04-26T17:52:11.632Z,37.50
2019-04-26T17:54:47.039Z,37.60
2019-04-26T17:57:14.309Z,37.80
2019-04-26T17:59:47.663Z,38.30
2019-04-26T18:02:25.874Z,37.90
2019-04-26T18:04:43.791Z,38.80
2019-04-26T18:07:36.257Z,38.60
2019-04-26T18:09:46.612Z,38.70
2019-04-26T18:12:14.091Z,38.90
2019-04-26T18:14:43.394Z,39.50
2019-04-26T18:17:25.993Z,39.00
2019-04-26T18:20:05.175Z,39.60
2019-04-26T18:22:36.174Z,39.80
2019-04-26T18:25:11.117Z,40.40
2019-04-26T18:27:38.711Z,40.30
2019-04-26T18:30:11.675Z,40.40
2019-04-26T18:32:42.932Z,41.20
2019-04-26T18:35:15.198Z,40.80
2019-04-26T18:37:42.599Z,40.80
2019-04-26T18:40:11.929Z,41.10
2019-04-26T18:42:41.846Z,41.70
2019-04-26T18:45:11.745Z,42.00
2019-04-26T18:47:45.370Z,42.70
2019-04-26T18:50:13.931Z,42.60
2019-04-26T18:52:50.636Z,42.50
2019-04-26T18:55:28.546Z,41.40
2019-04-26T18:57:55.173Z,42.00
2019-04-26T19:00:28.981Z,42.60
2019-04-26T19:02:59.998Z,42.90
2019-04-26T19:05:30.155Z,42.80
2019-04-26T19:07:59.653Z,43.50
2019-04-26T19:10:29.279Z,43.50
2019-04-26T19:13:01.467Z,42.90
2019-04-26T19:15:42.028Z,43.70
2019-04-26T19:18:15.179Z,44.00
2019-04-26T19:20:48.510Z,44.30
2019-04-26T19:23:17.542Z,44.20
2019-04-26T19:25:46.498Z,44.30
2019-04-26T19:28:15.901Z,43.80
2019-04-26T19:30:49.558Z,44.00
2019-04-26T19:33:16.885Z,44.40
2019-04-26T19:35:47.588Z,44.30
2019-04-26T19:38:16.690Z,44.50
2019-04-26T19:40:47.800Z,44.90
2019-04-26T19:43:28.251Z,45.50
2019-04-26T19:45:48.850Z,45.00
2019-04-26T19:48:26.104Z,44.70
2019-04-26T19:50:56.798Z,44.70
2019-04-26T19:53:30.152Z,44.90
2019-04-26T19:56:06.863Z,45.40
2019-04-26T19:58:45.877Z,45.20
2019-04-26T20:01:16.469Z,45.40
2019-04-26T20:03:47.387Z,45.80
2019-04-26T20:06:18.791Z,45.60
2019-04-26T20:08:49.378Z,46.70
2019-04-26T20:11:18.699Z,48.30
2019-04-26T20:13:51.874Z,48.50
2019-04-26T20:16:18.139Z,48.70
2019-04-26T20:18:47.089Z,49.10
2019-04-26T20:21:16.040Z,49.50
2019-04-26T20:23:47.476Z,49.50
2019-04-26T20:26:15.663Z,50.50
2019-04-26T20:28:44.661Z,52.50
2019-04-26T20:31:15.338Z,53.80
2019-04-26T20:33:44.443Z,53.10
2019-04-26T20:36:13.422Z,52.00
2019-04-26T20:38:47.069Z,54.60
2019-04-26T20:41:14.819Z,56.10
2019-04-26T20:43:47.020Z,56.40
2019-04-26T20:46:15.630Z,56.70
2019-04-26T20:48:45.151Z,56.30
2019-04-26T20:51:14.117Z,56.20
2019-04-26T20:53:43.830Z,57.10
2019-04-26T20:56:18.175Z,57.30
2019-04-26T20:58:47.005Z,56.80
2019-04-26T21:01:15.406Z,57.80
2019-04-26T21:03:46.004Z,58.60
2019-04-26T21:06:15.221Z,59.60
2019-04-26T21:08:44.325Z,59.20
2019-04-26T21:11:13.808Z,57.10
2019-04-26T21:13:43.186Z,57.00
2019-04-26T21:16:15.286Z,58.50
2019-04-26T21:18:44.364Z,58.20
2019-04-26T21:21:16.019Z,56.80
2019-04-26T21:23:46.200Z,57.10
2019-04-26T21:26:16.901Z,56.70
2019-04-26T21:28:47.563Z,56.90
2019-04-26T21:31:18.169Z,56.90
2019-04-26T21:33:58.073Z,56.90
2019-04-26T21:36:36.218Z,56.50
2019-04-26T21:39:07.349Z,56.10
2019-04-26T21:41:40.428Z,55.90
2019-04-26T21:44:12.350Z,56.40
2019-04-26T21:46:40.055Z,54.60
2019-04-26T21:49:09.003Z,53.60
2019-04-26T21:51:38.354Z,53.40
2019-04-26T21:54:07.317Z,54.30
2019-04-26T21:56:36.274Z,57.20
2019-04-26T21:59:05.255Z,56.60
2019-04-26T22:01:34.361Z,56.50
2019-04-26T22:04:03.316Z,54.80
2019-04-26T22:06:33.416Z,53.00
2019-04-26T22:09:05.165Z,52.40
2019-04-26T22:11:34.832Z,51.90
2019-04-26T22:14:08.277Z,52.10
2019-04-26T22:16:41.907Z,52.30
2019-04-26T22:19:23.757Z,52.90
2019-04-26T22:21:59.345Z,53.60
2019-04-26T22:24:29.389Z,54.00
2019-04-26T22:26:58.366Z,54.90
2019-04-26T22:29:27.592Z,55.40
2019-04-26T22:31:56.661Z,56.10
2019-04-26T22:34:25.686Z,56.10
2019-04-26T22:36:54.635Z,56.70
2019-04-26T22:39:24.542Z,56.60
2019-04-26T22:41:53.801Z,56.40
2019-04-26T22:44:31.377Z,56.60
2019-04-26T22:47:08.333Z,56.90
2019-04-26T22:49:41.643Z,57.40
2019-04-26T22:52:11.120Z,57.80
2019-04-26T22:54:44.664Z,58.30
2019-04-26T22:57:13.119Z,58.70
2019-04-26T22:59:43.276Z,59.30
2019-04-26T23:02:13.684Z,59.10
2019-04-26T23:04:42.935Z,58.90
2019-04-26T23:07:13.551Z,59.10
2019-04-26T23:09:45.711Z,59.40
2019-04-26T23:12:16.411Z,59.00
2019-04-26T23:15:05.531Z,59.40
2019-04-26T23:17:52.625Z,59.30
2019-04-26T23:20:38.106Z,59.60
2019-04-26T23:23:08.681Z,59.30
2019-04-26T23:25:37.874Z,59.60
2019-04-26T23:28:06.834Z,60.00
2019-04-26T23:30:35.789Z,59.80
2019-04-26T23:33:04.820Z,60.00
2019-04-26T23:35:37.576Z,60.30
2019-04-26T23:38:06.102Z,60.30
2019-04-26T23:40:35.395Z,60.60
2019-04-26T23:43:04.413Z,61.00
2019-04-26T23:45:33.442Z,61.00
2019-04-26T23:48:03.547Z,61.40
2019-04-26T23:50:34.081Z,61.60
2019-04-26T23:53:03.265Z,61.20
2019-04-26T23:55:33.720Z,61.10
2019-04-26T23:58:06.456Z,61.20
